Time;durP1;ratioP1;P1;durP2;ratioP2;P2;SDS_P1;SDS_P2;PMS_P1;PMS_P2;Temp;Humidity;BMP_temperature;BMP_pressure;BME280_temperature;BME280_humidity;BME280_pressure;Samples;Min_cycle;Max_cycle;Signal;HPM_P1;HPM_P2
2021/03/18 00:00:42;;;;;;;;;26.75;24.25;;;;;9.78;75.85;100081.78;4877398;29;11607;-72
2021/03/18 00:03:40;;;;;;;;;27.50;26.50;;;;;9.89;75.50;100083.78;4875316;29;11701;-72
2021/03/18 00:06:37;;;;;;;;;31.00;30.75;;;;;9.89;75.78;100086.56;4877597;29;11617;-72
2021/03/18 00:09:21;;;;;;;;;27.25;27.25;;;;;9.78;75.97;100087.31;4879289;29;11802;-72
2021/03/18 00:12:18;;;;;;;;;23.00;23.00;;;;;9.67;75.68;100081.41;4878164;29;11640;-72
2021/03/18 00:15:14;;;;;;;;;24.75;24.75;;;;;9.72;75.87;100078.41;4877253;29;11626;-72
2021/03/18 00:18:13;;;;;;;;;28.25;28.25;;;;;9.72;75.91;100083.94;4876545;29;11620;-72
2021/03/18 00:20:41;;;;;;;;;23.75;23.25;;;;;9.73;75.87;100080.03;4879569;29;11627;-72
2021/03/18 00:23:36;;;;;;;;;24.75;24.25;;;;;9.70;75.87;100076.00;4876058;29;11646;-72
2021/03/18 00:26:33;;;;;;;;;27.00;25.25;;;;;9.65;75.83;100078.16;4876101;29;11711;-72
2021/03/18 00:29:28;;;;;;;;;32.75;31.50;;;;;9.64;75.81;100074.59;4878510;29;11704;-73
2021/03/18 00:32:24;;;;;;;;;32.50;31.25;;;;;9.62;75.83;100074.13;4877351;29;11641;-72
2021/03/18 00:35:21;;;;;;;;;26.50;26.50;;;;;9.53;75.61;100069.84;4877194;29;11746;-72
2021/03/18 00:38:16;;;;;;;;;23.25;22.50;;;;;9.34;76.62;100067.56;4876532;29;11619;-71
2021/03/18 00:41:13;;;;;;;;;23.75;23.75;;;;;9.40;76.26;100060.69;4876180;29;11644;-72
2021/03/18 00:44:08;;;;;;;;;28.25;27.50;;;;;9.44;76.10;100067.16;4876895;29;11734;-72
2021/03/18 00:47:04;;;;;;;;;23.50;23.00;;;;;9.48;76.22;100060.63;4877341;29;11757;-72
2021/03/18 00:49:45;;;;;;;;;27.00;26.75;;;;;9.63;75.50;100064.69;4877423;29;12500;-72
2021/03/18 00:52:41;;;;;;;;;26.00;25.00;;;;;9.59;75.62;100055.50;4876312;29;11632;-72
2021/03/18 00:55:37;;;;;;;;;22.75;22.75;;;;;9.48;75.79;100059.81;4875950;29;11748;-73
2021/03/18 00:58:32;;;;;;;;;20.50;20.50;;;;;9.51;76.04;100053.63;4875463;29;11646;-73
2021/03/18 01:01:28;;;;;;;;;28.50;28.50;;;;;9.45;75.80;100064.06;4874872;29;11603;-72
2021/03/18 01:04:23;;;;;;;;;26.00;26.00;;;;;9.56;75.64;100064.44;4877614;29;11621;-73
2021/03/18 01:07:19;;;;;;;;;24.00;23.75;;;;;9.44;76.17;100069.94;4876063;29;11648;-73
2021/03/18 01:10:00;;;;;;;;;24.75;23.25;;;;;9.53;75.48;100069.84;4876891;29;11667;-73
2021/03/18 01:12:56;;;;;;;;;28.25;28.25;;;;;9.49;75.78;100066.94;4874886;29;11615;-73
2021/03/18 01:15:58;;;;;;;;;30.25;29.00;;;;;9.31;76.40;100068.25;4874900;29;11684;-73
2021/03/18 01:18:57;;;;;;;;;40.75;38.00;;;;;9.37;75.87;100064.94;4875044;29;12458;-73
2021/03/18 01:21:56;;;;;;;;;40.75;38.75;;;;;9.36;75.88;100060.59;4875127;29;11714;-73
2021/03/18 01:24:55;;;;;;;;;42.50;38.00;;;;;9.29;76.25;100059.50;4875595;29;11768;-73
2021/03/18 01:27:52;;;;;;;;;56.50;48.00;;;;;9.13;76.30;100064.84;4875851;29;11676;-73
2021/03/18 01:30:47;;;;;;;;;62.75;48.00;;;;;8.99;76.54;100059.56;4877391;29;12625;-73
2021/03/18 01:33:43;;;;;;;;;60.50;43.75;;;;;9.01;76.44;100060.03;4873212;29;11710;-73
2021/03/18 01:36:38;;;;;;;;;50.00;43.25;;;;;9.00;76.57;100065.88;4875238;29;11772;-73
2021/03/18 01:39:34;;;;;;;;;56.25;42.75;;;;;8.91;76.57;100055.72;4877348;29;12488;-73
2021/03/18 01:42:29;;;;;;;;;47.50;41.50;;;;;8.75;77.14;100051.16;4876585;29;12541;-73
2021/03/18 01:45:25;;;;;;;;;25.25;22.25;;;;;8.71;77.43;100050.19;4876249;29;11681;-73
2021/03/18 01:48:22;;;;;;;;;37.75;35.25;;;;;8.57;77.71;100050.41;4875591;29;11697;-73
2021/03/18 01:51:20;;;;;;;;;38.25;36.75;;;;;8.50;78.03;100050.94;4874979;29;11711;-73
2021/03/18 01:54:16;;;;;;;;;29.00;29.00;;;;;8.56;77.77;100046.06;4875755;29;11691;-72
2021/03/18 01:57:12;;;;;;;;;35.50;33.75;;;;;8.59;77.79;100054.47;4876556;29;11694;-72
2021/03/18 02:00:10;;;;;;;;;53.50;45.25;;;;;8.42;78.11;100042.72;4875499;29;11721;-72
2021/03/18 02:03:06;;;;;;;;;83.00;63.33;;;;;8.35;78.67;100051.50;4876876;29;11665;-73
2021/03/18 02:06:02;;;;;;;;;84.00;67.00;;;;;8.43;78.12;100047.88;4872836;29;11702;-72
2021/03/18 02:08:31;;;;;;;;;95.00;82.00;;;;;8.45;78.13;100055.84;4879842;29;8886;-72
2021/03/18 02:11:26;;;;;;;;;122.33;112.33;;;;;8.47;78.09;100057.13;4876672;29;8863;-72
2021/03/18 02:14:02;;;;;;;;;137.00;127.25;;;;;8.48;78.09;100055.97;4873137;29;8863;-73
2021/03/18 02:17:02;;;;;;;;;95.67;84.67;;;;;8.30;77.79;100058.00;4874633;29;8867;-72
2021/03/18 02:20:28;;;;;;;;;85.50;66.50;;;;;8.09;77.99;100051.59;4871155;29;8902;-71
2021/03/18 02:23:10;;;;;;;;;89.33;70.33;;;;;8.04;78.53;100060.81;4875768;29;11751;-71
2021/03/18 02:26:23;;;;;;;;;85.00;66.33;;;;;7.94;78.58;100065.88;4878070;29;8934;-72
2021/03/18 02:29:33;;;;;;;;;89.00;73.33;;;;;7.88;78.82;100059.75;4878224;29;11791;-72
2021/03/18 02:32:44;;;;;;;;;73.25;60.50;;;;;7.90;78.07;100065.75;4880777;29;8855;-72
2021/03/18 02:35:49;;;;;;;;;78.75;62.75;;;;;7.97;78.01;100066.03;4878029;29;11674;-72
2021/03/18 02:38:56;;;;;;;;;70.25;54.75;;;;;7.84;78.30;100078.06;4880659;29;11814;-72
2021/03/18 02:41:59;;;;;;;;;74.50;61.75;;;;;7.64;78.87;100073.25;4880201;29;11714;-71
2021/03/18 02:44:59;;;;;;;;;83.00;66.00;;;;;7.54;79.16;100071.63;4879969;29;11837;-72
2021/03/18 02:47:58;;;;;;;;;76.00;59.50;;;;;7.54;78.88;100071.63;4879959;29;12429;-72
2021/03/18 02:50:55;;;;;;;;;71.75;57.50;;;;;7.72;78.33;100075.97;4879318;29;11722;-72
2021/03/18 02:53:51;;;;;;;;;73.75;61.25;;;;;7.39;79.03;100067.44;4879128;29;11693;-72
2021/03/18 02:56:52;;;;;;;;;77.67;61.67;;;;;7.51;78.68;100058.50;4878422;29;11708;-72
2021/03/18 02:59:49;;;;;;;;;78.00;62.00;;;;;7.27;79.13;100067.28;4878545;29;11695;-72
2021/03/18 03:02:48;;;;;;;;;79.75;63.75;;;;;7.11;79.52;100066.94;4878050;29;11822;-73
2021/03/18 03:05:49;;;;;;;;;76.25;62.25;;;;;7.16;78.86;100066.78;4874776;29;11693;-72
2021/03/18 03:08:46;;;;;;;;;74.75;59.75;;;;;7.17;78.59;100070.34;4878262;29;11700;-73
2021/03/18 03:11:42;;;;;;;;;79.33;62.00;;;;;7.00;79.07;100070.34;4878195;29;11688;-72
2021/03/18 03:14:39;;;;;;;;;78.50;62.50;;;;;7.12;78.63;100067.75;4879509;29;11841;-73
2021/03/18 03:17:35;;;;;;;;;66.50;56.00;;;;;6.94;79.03;100067.75;4878290;29;11720;-73
2021/03/18 03:20:32;;;;;;;;;70.00;57.00;;;;;6.83;78.71;100076.63;4878984;29;11757;-73
2021/03/18 03:23:28;;;;;;;;;71.75;56.00;;;;;6.87;79.19;100064.66;4877837;29;11690;-73
2021/03/18 03:26:26;;;;;;;;;69.00;56.50;;;;;6.85;78.94;100066.13;4877959;29;11720;-73
2021/03/18 03:29:22;;;;;;;;;72.00;56.50;;;;;6.75;78.48;100067.25;4879523;29;11687;-73
2021/03/18 03:32:17;;;;;;;;;65.75;55.00;;;;;6.84;79.32;100065.31;4879564;29;11717;-72
2021/03/18 03:35:06;;;;;;;;;71.25;55.75;;;;;6.91;78.99;100062.91;4880008;29;11709;-72
2021/03/18 03:38:02;;;;;;;;;69.25;55.75;;;;;6.79;78.55;100059.97;4878915;29;11731;-72
2021/03/18 03:40:58;;;;;;;;;68.00;56.00;;;;;6.61;79.58;100075.59;4879081;29;11913;-72
2021/03/18 03:43:26;;;;;;;;;74.33;59.67;;;;;6.58;79.41;100076.22;4874581;29;11702;-72
2021/03/18 03:46:22;;;;;;;;;75.00;58.67;;;;;6.58;79.98;100081.72;4879783;29;11718;-72
2021/03/18 03:49:19;;;;;;;;;77.67;63.00;;;;;6.68;79.69;100081.44;4878732;29;11821;-73
2021/03/18 03:52:25;;;;;;;;;92.00;72.00;;;;;6.55;80.05;100085.13;4874487;29;11732;-74
2021/03/18 03:55:40;;;;;;;;;89.00;68.00;;;;;6.31;79.98;100093.75;4877325;29;8991;-73
2021/03/18 03:58:46;;;;;;;;;92.33;71.67;;;;;6.29;80.81;100095.22;4877886;29;8890;-72
2021/03/18 04:01:45;;;;;;;;;102.67;87.33;;;;;6.42;80.44;100094.28;4880007;29;8897;-73
2021/03/18 04:04:45;;;;;;;;;132.33;105.67;;;;;6.40;80.45;100099.28;4879501;29;8866;-72
2021/03/18 04:07:44;;;;;;;;;113.00;92.33;;;;;6.38;80.62;100098.81;4878421;29;8939;-72
2021/03/18 04:10:14;;;;;;;;;103.00;85.67;;;;;6.48;80.84;100098.50;4880486;29;8874;-72
2021/03/18 04:13:12;;;;;;;;;93.00;72.00;;;;;6.46;81.52;100098.03;4876828;29;8942;-72
2021/03/18 04:16:09;;;;;;;;;102.00;81.67;;;;;6.60;81.16;100097.91;4874094;29;8854;-72
2021/03/18 04:19:06;;;;;;;;;98.67;80.33;;;;;6.48;81.98;100101.25;4878791;29;8891;-73
2021/03/18 04:22:04;;;;;;;;;100.00;84.33;;;;;6.56;82.35;100105.16;4877212;29;8875;-73
2021/03/18 04:25:01;;;;;;;;;107.00;85.33;;;;;6.65;82.36;100109.53;4876205;29;8977;-73
2021/03/18 04:27:58;;;;;;;;;99.67;87.00;;;;;6.61;82.42;100124.25;4876600;29;9596;-72
2021/03/18 04:30:55;;;;;;;;;141.75;121.75;;;;;6.68;82.51;100127.34;4875455;29;8946;-73
2021/03/18 04:33:25;;;;;;;;;173.00;143.75;;;;;6.75;82.76;100133.19;4874518;29;8843;-73
2021/03/18 04:36:21;;;;;;;;;193.50;165.50;;;;;6.87;82.31;100143.56;4877695;29;8885;-72
2021/03/18 04:39:17;;;;;;;;;140.50;121.00;;;;;6.83;82.49;100146.16;4877961;29;8859;-73
2021/03/18 04:41:45;;;;;;;;;107.67;98.00;;;;;6.91;82.02;100150.88;4879259;29;8887;-73
2021/03/18 04:44:42;;;;;;;;;94.33;72.00;;;;;6.72;82.64;100146.75;4875893;29;8877;-73
2021/03/18 04:47:41;;;;;;;;;87.33;67.00;;;;;6.72;83.09;100153.06;4877498;29;8892;-71
2021/03/18 04:50:37;;;;;;;;;102.00;84.33;;;;;6.69;83.63;100154.50;4876438;29;8862;-72
2021/03/18 04:53:05;;;;;;;;;126.00;107.00;;;;;6.71;83.45;100145.94;4878797;29;8895;-72
2021/03/18 04:56:02;;;;;;;;;126.67;105.67;;;;;6.88;83.38;100158.91;4877806;29;9716;-73
2021/03/18 04:59:00;;;;;;;;;129.00;101.67;;;;;6.90;83.24;100159.41;4876369;29;8847;-73
2021/03/18 05:01:57;;;;;;;;;130.67;102.00;;;;;6.89;83.69;100164.09;4877173;29;8993;-73
2021/03/18 05:04:55;;;;;;;;;119.67;102.33;;;;;6.77;83.96;100169.41;4875929;29;9569;-72
2021/03/18 05:07:52;;;;;;;;;89.67;69.00;;;;;6.76;83.95;100161.50;4878528;29;8889;-74
2021/03/18 05:10:24;;;;;;;;;87.00;67.00;;;;;6.65;83.90;100163.69;4876890;29;8949;-71
2021/03/18 05:13:20;;;;;;;;;101.67;83.00;;;;;6.75;84.25;100171.66;4876010;29;11820;-71
2021/03/18 05:16:17;;;;;;;;;104.33;87.67;;;;;6.94;83.67;100179.66;4875945;29;8870;-72
2021/03/18 05:19:14;;;;;;;;;94.00;76.33;;;;;6.92;83.88;100179.97;4875381;29;8882;-72
2021/03/18 05:22:11;;;;;;;;;82.00;64.67;;;;;6.99;83.47;100179.50;4876302;29;8855;-71
2021/03/18 05:25:09;;;;;;;;;93.67;71.33;;;;;7.00;83.29;100183.06;4877354;29;11700;-72
2021/03/18 05:28:06;;;;;;;;;61.00;49.25;;;;;6.91;83.48;100183.84;4873064;29;8931;-72
2021/03/18 05:30:45;;;;;;;;;51.50;44.00;;;;;7.05;83.22;100189.22;4880491;29;11715;-77
2021/03/18 05:33:41;;;;;;;;;52.50;45.00;;;;;7.05;83.63;100191.16;4873399;29;11802;-78
2021/03/18 05:36:37;;;;;;;;;52.25;42.25;;;;;6.99;83.45;100190.50;4876891;29;12456;-75
2021/03/18 05:39:32;;;;;;;;;52.75;44.25;;;;;7.07;82.99;100197.16;4878208;29;11713;-78
2021/03/18 05:42:28;;;;;;;;;66.25;52.75;;;;;7.09;83.71;100208.63;4876725;29;11694;-78
2021/03/18 05:45:24;;;;;;;;;62.25;49.75;;;;;7.21;83.29;100211.59;4873991;29;12438;-78
2021/03/18 05:48:20;;;;;;;;;71.75;56.00;;;;;7.16;83.10;100214.50;4876836;29;11757;-76
2021/03/18 05:51:17;;;;;;;;;63.50;52.50;;;;;7.36;82.74;100210.31;4874791;29;11716;-77
2021/03/18 05:54:14;;;;;;;;;59.50;51.00;;;;;7.38;82.70;100211.63;4877493;29;11818;-76
2021/03/18 05:57:11;;;;;;;;;61.50;51.25;;;;;7.00;83.49;100219.63;4877379;29;11728;-78
2021/03/18 06:00:09;;;;;;;;;58.75;46.75;;;;;7.22;83.45;100213.22;4878801;29;11707;-76
2021/03/18 06:03:05;;;;;;;;;45.50;42.25;;;;;6.94;84.25;100210.69;4879810;29;12538;-77
2021/03/18 06:06:02;;;;;;;;;58.25;49.00;;;;;7.08;84.14;100207.03;4876577;29;11671;-77
2021/03/18 06:08:59;;;;;;;;;65.00;53.00;;;;;7.25;83.98;100207.88;4878473;29;12575;-77
2021/03/18 06:11:55;;;;;;;;;52.75;46.75;;;;;7.18;83.69;100203.97;4881441;29;11673;-76
2021/03/18 06:14:52;;;;;;;;;54.00;42.50;;;;;7.36;84.07;100208.41;4878675;29;11695;-76
2021/03/18 06:17:49;;;;;;;;;49.00;43.00;;;;;7.22;83.90;100208.53;4879698;29;11699;-76
2021/03/18 06:20:53;;;;;;;;;50.25;44.25;;;;;7.33;83.75;100209.00;4879421;29;11836;-76
2021/03/18 06:24:02;;;;;;;;;53.50;45.75;;;;;7.36;83.51;100219.41;4879770;29;11683;-76
2021/03/18 06:26:58;;;;;;;;;55.00;45.25;;;;;7.73;84.30;100204.19;4877962;29;11720;-74
2021/03/18 06:29:55;;;;;;;;;63.00;52.75;;;;;9.50;89.05;100203.81;4868474;29;11743;-76
2021/03/18 06:32:51;;;;;;;;;82.33;68.00;;;;;9.81;88.77;100219.97;4879226;29;11699;-77
2021/03/18 06:35:47;;;;;;;;;56.50;46.00;;;;;9.35;84.65;100210.72;4877159;29;8843;-75
2021/03/18 06:38:42;;;;;;;;;44.75;39.50;;;;;8.95;82.71;100215.00;4882168;29;11801;-75
2021/03/18 06:41:48;;;;;;;;;64.25;53.25;;;;;8.64;81.14;100219.66;4881591;29;11762;-76
2021/03/18 06:44:45;;;;;;;;;58.00;47.00;;;;;8.62;80.72;100218.38;4876682;29;11693;-75
2021/03/18 06:47:51;;;;;;;;;50.50;41.25;;;;;8.23;80.08;100217.47;4871981;29;12466;-76
2021/03/18 06:50:48;;;;;;;;;42.00;39.25;;;;;8.38;79.70;100213.41;4877217;29;11733;-76
2021/03/18 06:53:44;;;;;;;;;39.75;38.00;;;;;8.35;79.58;100214.88;4870190;29;11714;-76
2021/03/18 06:56:39;;;;;;;;;41.50;37.75;;;;;8.29;79.83;100215.34;4881223;29;11707;-75
2021/03/18 06:59:40;;;;;;;;;40.25;38.00;;;;;8.31;79.48;100230.41;4880281;29;11732;-75
2021/03/18 07:02:41;;;;;;;;;45.00;40.00;;;;;8.42;79.30;100225.38;4879889;29;11723;-75
2021/03/18 07:05:42;;;;;;;;;37.25;33.75;;;;;8.21;79.39;100228.00;4878658;29;11777;-75
2021/03/18 07:08:40;;;;;;;;;46.00;42.25;;;;;8.11;80.97;100228.31;4879234;29;11697;-78
2021/03/18 07:11:22;;;;;;;;;45.25;40.00;;;;;8.03;80.67;100226.38;4881303;29;11813;-75
2021/03/18 07:14:35;;;;;;;;;48.00;41.25;;;;;8.35;80.02;100225.88;4880110;29;11744;-74
2021/03/18 07:17:34;;;;;;;;;46.00;41.25;;;;;8.34;80.65;100218.72;4879863;29;11681;-75
2021/03/18 07:20:30;;;;;;;;;49.75;41.25;;;;;8.23;80.00;100224.91;4874397;29;12419;-74
2021/03/18 07:23:34;;;;;;;;;39.50;34.75;;;;;8.27;80.37;100225.88;4877183;29;11714;-74
2021/03/18 07:26:38;;;;;;;;;40.25;38.50;;;;;8.53;80.15;100232.19;4878113;29;11786;-75
2021/03/18 07:29:35;;;;;;;;;51.75;43.50;;;;;8.65;79.01;100223.22;4882082;29;11718;-74
2021/03/18 07:32:32;;;;;;;;;56.00;47.00;;;;;8.62;78.66;100226.66;4873455;29;11715;-74
2021/03/18 07:35:29;;;;;;;;;41.50;39.25;;;;;8.45;79.30;100224.75;4884502;29;11711;-74
2021/03/18 07:38:27;;;;;;;;;55.75;43.75;;;;;8.45;79.85;100230.25;4871918;29;11713;-74
2021/03/18 07:40:56;;;;;;;;;38.00;37.00;;;;;8.54;79.84;100228.28;4880678;29;11726;-74
2021/03/18 07:43:52;;;;;;;;;48.50;42.00;;;;;8.34;79.85;100231.69;4875539;29;12516;-74
2021/03/18 07:46:49;;;;;;;;;41.75;37.00;;;;;8.53;79.83;100223.09;4877872;29;12457;-74
2021/03/18 07:49:47;;;;;;;;;44.00;38.75;;;;;8.62;79.36;100221.94;4879057;29;11681;-74
2021/03/18 07:52:45;;;;;;;;;56.00;47.75;;;;;8.52;79.69;100230.56;4893924;29;11738;-74
2021/03/18 07:55:42;;;;;;;;;54.00;44.25;;;;;8.82;79.22;100239.72;4885065;29;11713;-74
2021/03/18 07:58:11;;;;;;;;;53.50;45.00;;;;;8.54;79.62;100235.75;4879757;29;11730;-74
2021/03/18 08:01:07;;;;;;;;;60.75;49.00;;;;;8.39;80.11;100230.75;4877259;29;11768;-75
2021/03/18 08:04:09;;;;;;;;;59.00;46.50;;;;;8.97;79.47;100230.09;4879417;29;11769;-74
2021/03/18 08:07:06;;;;;;;;;53.00;44.25;;;;;9.05;78.41;100214.66;4879890;29;11721;-74
2021/03/18 08:10:01;;;;;;;;;55.50;44.25;;;;;9.14;78.35;100215.41;4876684;29;11715;-75
2021/03/18 08:12:59;;;;;;;;;57.00;46.75;;;;;8.76;78.99;100218.97;4876145;29;11749;-74
2021/03/18 08:15:55;;;;;;;;;46.50;41.75;;;;;9.14;78.29;100215.41;4877327;29;11702;-74
2021/03/18 08:18:52;;;;;;;;;54.50;45.50;;;;;9.18;77.62;100225.44;4877074;29;11675;-75
2021/03/18 08:21:52;;;;;;;;;43.25;39.25;;;;;9.11;77.70;100221.56;4875797;29;11827;-74
2021/03/18 08:24:48;;;;;;;;;56.50;46.50;;;;;9.41;77.06;100223.19;4876945;29;11812;-73
2021/03/18 08:27:44;;;;;;;;;47.50;43.25;;;;;9.29;76.75;100227.84;4877632;29;11708;-74
2021/03/18 08:30:40;;;;;;;;;41.50;39.25;;;;;9.52;76.48;100233.88;4878625;29;11682;-73
2021/03/18 08:33:49;;;;;;;;;42.00;40.25;;;;;9.69;75.45;100231.78;4880267;29;11764;-75
2021/03/18 08:36:51;;;;;;;;;56.00;45.25;;;;;9.89;75.33;100232.09;4877471;29;11719;-74
2021/03/18 08:39:50;;;;;;;;;55.00;45.50;;;;;9.90;75.50;100229.03;4874298;29;11697;-74
2021/03/18 08:42:50;;;;;;;;;65.50;52.50;;;;;10.16;74.76;100226.03;4879237;29;12474;-74
2021/03/18 08:45:46;;;;;;;;;42.75;40.00;;;;;9.91;74.50;100227.88;4876647;29;11704;-74
2021/03/18 08:48:28;;;;;;;;;54.50;42.75;;;;;9.91;75.09;100224.31;4878577;29;11678;-74
2021/03/18 08:51:40;;;;;;;;;68.00;55.00;;;;;10.07;75.08;100227.25;4876474;29;11669;-75
2021/03/18 08:54:36;;;;;;;;;44.75;40.00;;;;;9.47;76.28;100232.09;4877531;29;11752;-74
2021/03/18 08:57:33;;;;;;;;;38.25;37.00;;;;;9.43;77.37;100229.22;4878835;29;11727;-74
2021/03/18 09:00:29;;;;;;;;;33.00;32.75;;;;;9.27;78.19;100233.66;4877469;29;12422;-74
2021/03/18 09:03:25;;;;;;;;;51.75;44.00;;;;;9.54;77.89;100240.66;4878570;29;12506;-74
2021/03/18 09:06:21;;;;;;;;;51.50;43.00;;;;;9.72;77.14;100247.66;4875441;29;11854;-74
2021/03/18 09:08:57;;;;;;;;;53.75;45.75;;;;;9.87;76.39;100246.25;4874136;29;11726;-73
2021/03/18 09:11:54;;;;;;;;;42.25;39.50;;;;;10.05;75.73;100246.13;4876503;29;11939;-75
2021/03/18 09:14:52;;;;;;;;;61.25;50.25;;;;;10.01;75.58;100246.81;4875906;29;11705;-75
2021/03/18 09:17:23;;;;;;;;;62.25;51.00;;;;;10.15;75.41;100243.75;4878327;29;11820;-75
2021/03/18 09:20:23;;;;;;;;;95.25;76.25;;;;;10.37;75.17;100248.16;4876967;29;11709;-75
2021/03/18 09:23:26;;;;;;;;;81.00;63.00;;;;;10.35;75.03;100247.69;4878618;29;11807;-77
2021/03/18 09:26:22;;;;;;;;;49.75;42.50;;;;;10.48;74.48;100248.50;4877126;29;11706;-76
2021/03/18 09:29:26;;;;;;;;;60.75;46.50;;;;;10.21;74.94;100255.41;4873442;29;11728;-76
2021/03/18 09:32:23;;;;;;;;;44.75;39.75;;;;;10.36;74.93;100246.53;4876526;29;11751;-76
2021/03/18 09:35:20;;;;;;;;;53.75;45.25;;;;;10.32;75.03;100237.28;4876645;29;11657;-76
2021/03/18 09:38:04;;;;;;;;;49.75;43.00;;;;;10.23;75.08;100242.09;4874571;29;12184;-75
2021/03/18 09:41:01;;;;;;;;;53.00;45.75;;;;;10.43;74.54;100249.56;4880231;29;11689;-76
2021/03/18 09:44:25;;;;;;;;;58.75;48.00;;;;;10.55;74.62;100255.09;4880465;29;11695;-75
2021/03/18 09:47:22;;;;;;;;;50.00;41.00;;;;;10.69;73.92;100251.22;4876442;29;11702;-74
2021/03/18 09:49:52;;;;;;;;;59.00;46.75;;;;;10.67;74.28;100235.00;4875621;29;11699;-74
2021/03/18 09:52:48;;;;;;;;;62.00;50.50;;;;;10.73;73.49;100243.84;4876489;29;11831;-74
2021/03/18 09:55:45;;;;;;;;;70.50;54.50;;;;;10.74;73.37;100240.75;4875182;29;11670;-74
2021/03/18 09:58:42;;;;;;;;;60.75;49.75;;;;;11.01;72.67;100249.56;4876724;29;11754;-74
2021/03/18 10:01:40;;;;;;;;;66.50;53.50;;;;;11.19;72.56;100245.41;4873742;29;11868;-76
2021/03/18 10:04:43;;;;;;;;;62.25;48.75;;;;;11.24;71.91;100236.88;4869104;29;11695;-76
2021/03/18 10:07:38;;;;;;;;;57.00;48.50;;;;;11.27;71.24;100240.91;4876200;29;12412;-76
2021/03/18 10:10:34;;;;;;;;;62.50;52.00;;;;;11.43;70.87;100241.03;4878107;29;11721;-75
2021/03/18 10:13:30;;;;;;;;;62.50;52.00;;;;;11.61;70.71;100237.66;4873363;29;11756;-75
2021/03/18 10:16:25;;;;;;;;;53.00;44.75;;;;;11.27;70.24;100252.81;4876175;29;12569;-75
2021/03/18 10:18:53;;;;;;;;;51.25;44.25;;;;;11.39;70.48;100249.22;4877046;29;11625;-78
2021/03/18 10:21:49;;;;;;;;;66.00;53.50;;;;;11.10;71.25;100250.25;4876389;29;11673;-75
2021/03/18 10:25:16;;;;;;;;;63.50;52.50;;;;;11.25;71.21;100246.78;4876160;29;11721;-75
2021/03/18 10:28:14;;;;;;;;;63.00;51.50;;;;;11.27;71.23;100247.28;4877296;29;11817;-75
2021/03/18 10:30:50;;;;;;;;;58.25;48.00;;;;;11.38;70.98;100251.19;4872171;29;12561;-74
2021/03/18 10:33:35;;;;;;;;;51.75;41.50;;;;;11.03;70.41;100242.50;4876904;29;11622;-73
2021/03/18 10:36:33;;;;;;;;;48.25;41.25;;;;;10.89;71.19;100250.34;4873310;29;11638;-75
2021/03/18 10:39:29;;;;;;;;;56.50;45.75;;;;;11.24;70.73;100253.47;4874428;29;12394;-74
2021/03/18 10:42:30;;;;;;;;;57.00;47.25;;;;;11.39;70.64;100250.03;4873702;29;11769;-75
2021/03/18 10:45:29;;;;;;;;;48.25;40.50;;;;;11.43;70.02;100249.34;4876381;29;11647;-75
2021/03/18 10:48:28;;;;;;;;;63.50;50.25;;;;;11.47;69.54;100247.47;4884600;29;11613;-74
2021/03/18 10:51:24;;;;;;;;;61.25;48.50;;;;;11.56;70.13;100248.16;4877095;29;11692;-74
2021/03/18 10:54:22;;;;;;;;;63.25;50.50;;;;;11.61;69.86;100245.97;4876231;29;11697;-73
2021/03/18 10:57:17;;;;;;;;;64.00;51.50;;;;;11.62;70.19;100247.56;4874238;29;12524;-74
2021/03/18 11:00:02;;;;;;;;;62.50;50.25;;;;;11.61;69.79;100257.03;4879666;29;11710;-74
2021/03/18 11:03:00;;;;;;;;;60.25;46.00;;;;;11.61;69.39;100257.03;4878204;29;11687;-75
2021/03/18 11:05:57;;;;;;;;;55.00;46.50;;;;;11.47;69.52;100255.78;4880555;29;11744;-75
2021/03/18 11:08:56;;;;;;;;;59.00;50.00;;;;;11.41;69.41;100263.50;4879406;29;11692;-75
2021/03/18 11:11:57;;;;;;;;;51.00;44.50;;;;;11.34;69.57;100269.63;4879380;29;11668;-74
2021/03/18 11:14:56;;;;;;;;;48.25;42.25;;;;;11.19;69.34;100273.06;4878703;29;11693;-75
2021/03/18 11:18:06;;;;;;;;;45.00;38.50;;;;;11.01;69.49;100266.97;4877308;29;11642;-74
2021/03/18 11:20:37;;;;;;;;;54.25;46.75;;;;;11.05;69.16;100273.44;4881665;29;11645;-75
2021/03/18 11:23:36;;;;;;;;;57.50;48.75;;;;;11.07;69.48;100275.84;4879638;29;11614;-74
2021/03/18 11:26:32;;;;;;;;;50.25;43.00;;;;;10.99;69.08;100271.22;4881162;29;11713;-74
2021/03/18 11:29:34;;;;;;;;;62.00;50.50;;;;;11.02;69.16;100267.75;4877096;29;11631;-74
2021/03/18 11:32:31;;;;;;;;;50.25;41.75;;;;;11.07;68.93;100268.34;4879843;29;11690;-76
2021/03/18 11:35:29;;;;;;;;;59.50;50.00;;;;;11.04;68.79;100271.00;4886525;29;11650;-74
2021/03/18 11:38:25;;;;;;;;;42.25;39.25;;;;;10.92;68.80;100266.25;4883873;29;11715;-74
2021/03/18 11:41:20;;;;;;;;;63.25;49.50;;;;;10.92;68.70;100266.25;4877915;29;11635;-74
2021/03/18 11:44:16;;;;;;;;;51.50;45.00;;;;;10.76;69.46;100265.31;4879420;29;11732;-73
2021/03/18 11:47:14;;;;;;;;;56.50;47.25;;;;;10.79;69.62;100270.16;4875236;29;11830;-73
2021/03/18 11:50:13;;;;;;;;;56.75;46.00;;;;;10.75;69.28;100270.03;4878400;29;11677;-74
2021/03/18 11:53:10;;;;;;;;;53.75;45.75;;;;;10.65;69.39;100264.91;4881209;29;12004;-76
2021/03/18 11:56:05;;;;;;;;;52.75;44.50;;;;;10.64;69.36;100268.03;4880138;29;12463;-74
2021/03/18 11:59:01;;;;;;;;;69.00;55.25;;;;;10.64;69.31;100265.25;4875861;29;11690;-75
2021/03/18 12:01:30;;;;;;;;;57.00;49.00;;;;;10.93;69.29;100267.88;4880880;29;11720;-75
2021/03/18 12:04:26;;;;;;;;;46.25;41.75;;;;;10.85;68.94;100266.00;4874751;29;11679;-75
2021/03/18 12:07:21;;;;;;;;;45.25;39.25;;;;;10.80;69.14;100267.03;4879625;29;11642;-77
2021/03/18 12:09:49;;;;;;;;;45.75;39.50;;;;;10.69;69.22;100265.88;4890879;29;11643;-75
2021/03/18 12:12:46;;;;;;;;;55.50;45.50;;;;;10.74;69.35;100273.16;4868777;29;11627;-75
2021/03/18 12:15:41;;;;;;;;;45.00;40.00;;;;;10.64;69.67;100274.38;4883118;29;12431;-76
2021/03/18 12:18:37;;;;;;;;;53.50;45.50;;;;;10.95;68.93;100271.09;4878808;29;11640;-75
2021/03/18 12:21:33;;;;;;;;;58.00;47.75;;;;;10.71;69.36;100266.31;4892448;29;11661;-75
2021/03/18 12:24:32;;;;;;;;;55.25;46.50;;;;;10.90;69.24;100273.28;4886182;29;11685;-75
2021/03/18 12:27:28;;;;;;;;;54.75;45.25;;;;;10.84;69.20;100278.22;4875422;29;12396;-75
2021/03/18 12:30:24;;;;;;;;;56.25;47.75;;;;;11.00;68.84;100281.16;4876818;29;11704;-76
2021/03/18 12:33:20;;;;;;;;;59.25;46.00;;;;;11.11;68.60;100279.53;4877563;29;11674;-74
2021/03/18 12:36:17;;;;;;;;;58.00;48.25;;;;;11.16;68.30;100273.78;4883419;29;11720;-75
2021/03/18 12:38:47;;;;;;;;;54.25;45.00;;;;;11.25;68.47;100273.66;4877966;29;11735;-76
2021/03/18 12:41:44;;;;;;;;;59.25;50.25;;;;;11.20;68.40;100276.69;4877138;29;11663;-75
2021/03/18 12:44:40;;;;;;;;;54.25;44.25;;;;;11.28;68.34;100282.09;4877710;29;11730;-76
2021/03/18 12:47:38;;;;;;;;;50.00;43.50;;;;;10.98;69.13;100277.91;4850056;29;11744;-75
2021/03/18 12:50:12;;;;;;;;;54.00;44.75;;;;;10.71;70.59;100282.09;4873676;29;11633;-75
2021/03/18 12:53:08;;;;;;;;;58.50;48.00;;;;;10.73;70.73;100282.56;4871528;29;11750;-75
2021/03/18 12:56:05;;;;;;;;;58.50;49.75;;;;;10.89;70.08;100283.56;4878412;29;11701;-75
2021/03/18 12:59:00;;;;;;;;;60.00;50.50;;;;;10.93;69.75;100287.25;4875118;29;11770;-76
2021/03/18 13:01:32;;;;;;;;;56.00;48.25;;;;;10.91;69.50;100286.78;4875933;29;11714;-75
2021/03/18 13:04:28;;;;;;;;;52.00;43.00;;;;;10.86;69.62;100282.25;4877085;29;11726;-75
2021/03/18 13:06:56;;;;;;;;;59.50;48.25;;;;;10.96;69.46;100277.44;4879744;29;11683;-76
2021/03/18 13:09:24;;;;;;;;;63.00;49.50;;;;;10.84;69.31;100273.50;4878764;29;11749;-74
2021/03/18 13:12:21;;;;;;;;;50.00;43.25;;;;;10.73;70.04;100282.56;4877163;29;11811;-77
2021/03/18 13:15:17;;;;;;;;;66.75;51.00;;;;;10.39;72.71;100284.53;4871709;29;11714;-75
2021/03/18 13:18:14;;;;;;;;;63.00;53.00;;;;;10.21;73.46;100283.88;4872182;29;11693;-75
2021/03/18 13:21:09;;;;;;;;;59.00;49.00;;;;;10.03;74.87;100285.13;4855490;29;11678;-75